메인 페이지
METAR-TAF:

METAR-TAF

공항 :

Tyndall Air Force Base

패너마시티, 플로리다, 미국

위도: 30-04N, 경도: 085-35W, 고도: 5m

현재 날씨관측

예보는 42분 전, 22:56시(UTC)에 발표되었습니다.
남남동10kt
온도 26°C
습도 70%
기압 1012 hPa
시정: 16.1km
맑음

METAR: KPAM 262256Z AUTO 15010KT 10SM CLR 26/20 A2988 RMK AO2 SLP121 T02600198

시각: 18:38 (23:38 UTC)

예보

예보는 5 시간 38분 전, 18:00시(UTC)에 발표되었습니다.
예보 대상 시간: 26일 18시부터 27일 24시까지 (UTC)
남남동9kt
시정: 9000m
고도 2500ft 상공 구름 많음
약한소나기
일시적
26일 18시부터 26일 21시까지 (UTC)
여러 방향의 바람 10kt, 순간 최대 풍속 15kt
시정: 4800m
고도 2500ft 상공 구름 많음, 적란운.
뇌우, 약한비
전환 중
26일 23시부터 26일 24시까지 (UTC)
동남동6kt
시정 10km 이상
고도 3000ft 상공 구름 조금
고도 10000ft 상공 구름 조금
전환 중
27일 05시부터 27일 06시까지 (UTC)
북동12kt
시정 10km 이상
고도 2000ft 상공 구름 조금
고도 10000ft 상공 구름 많음

TAF: KPAM 261800Z 2618/2724 15009KT 9000 -SHRA BKN025 QNH2986INS TEMPO 2618/2621 VRB10G15KT 4800 -TSRA BKN025CB BECMG 2623/2624 11006KT 9999 NSW FEW030 FEW100 QNH2980INS BECMG 2705/2706 05012KT 9999 FEW020 BKN100 QNH2976INS TX30/2619Z TN20/2708Z

4,000개 이상의 공항 관측 자료 및 예보 (METAR 및 TAF 보고).

지도상에서 검색 가능한 기상관측소가 노란 점과 빨간 점으로 표시되어 있습니다.

기상관측소 명을 보려면 표시 위로 마우스를 이동하세요.

날씨 관측과 예보를 보려면 클릭하세요.

지도 변경 : 확대하려면 엑스 표시가 있는 녹색 버튼, 축소하려면 빼기 표시가 있는 녹색 버튼, 다음 페이지의 지도를 보려면 녹색 화살표를 클릭하세요.


METAR-TAF: